Terminal Aerodrome Forecast
Issued by NWS

Home | Current Version | Previous Version | Text Only | Print | Product List | Glossary On
Versions: 1 2 3 4 5 6 7 8 9 10 11 12 13 14 15 16 17
000
FTUS42 KMHX 310537
TAFPGV
TAF
KPGV 310537Z 3106/0106 00000KT P6SM VCSH SCT060 BKN120
     FM311200 VRB03KT P6SM SHRA BKN050 OVC090
     FM312000 15005KT P6SM VCSH BKN030
      TEMPO 0102/0106 4SM BR BKN010
      AMD LTD TO CLD VIS AND WIND=

USA.gov is the U.S. government's official web portal to all federal, state and local government web resources and services.